Time;durP1;ratioP1;P1;durP2;ratioP2;P2;SDS_P1;SDS_P2;PMS_P1;PMS_P2;Temp;Humidity;BMP_temperature;BMP_pressure;BME280_temperature;BME280_humidity;BME280_pressure;Samples;Min_cycle;Max_cycle;Signal;HPM_P1;HPM_P2
2021/09/06 00:00:25;;;;;;;;;15.00;12.00;;;;;22.43;54.26;101731.16;4927860;28;45393;-77
2021/09/06 00:02:50;;;;;;;;;13.75;12.75;;;;;22.44;54.53;101738.19;4915817;28;45805;-78
2021/09/06 00:05:15;;;;;;;;;15.75;14.75;;;;;22.42;54.74;101739.41;4913523;28;45443;-78
2021/09/06 00:07:43;;;;;;;;;14.25;13.25;;;;;22.40;54.93;101742.31;4913183;28;45612;-78
2021/09/06 00:10:17;;;;;;;;;15.25;15.25;;;;;22.38;54.74;101736.31;4914751;28;45876;-78
2021/09/06 00:12:43;;;;;;;;;13.75;13.75;;;;;22.35;55.11;101739.41;4924348;28;45436;-78
2021/09/06 00:15:09;;;;;;;;;15.00;14.00;;;;;22.32;55.11;101748.72;4925133;28;45435;-78
2021/09/06 00:17:34;;;;;;;;;13.25;12.50;;;;;22.29;55.54;101746.44;4924614;28;45677;-78
2021/09/06 00:20:00;;;;;;;;;13.00;12.50;;;;;22.27;56.60;101742.28;4923027;28;45522;-78
2021/09/06 00:22:25;;;;;;;;;16.00;16.00;;;;;22.22;56.64;101747.44;4922448;28;45507;-78
2021/09/06 00:24:50;;;;;;;;;14.00;14.00;;;;;22.18;57.20;101754.22;4912974;28;45526;-78
2021/09/06 00:27:16;;;;;;;;;15.25;14.00;;;;;22.12;56.12;101739.72;4912917;28;45834;-78
2021/09/06 00:29:41;;;;;;;;;17.25;15.25;;;;;22.07;56.90;101744.88;4915593;28;45464;-78
2021/09/06 00:32:06;;;;;;;;;14.00;12.50;;;;;21.99;56.98;101742.38;4913940;28;45391;-78
2021/09/06 00:34:32;;;;;;;;;17.00;14.50;;;;;21.95;57.55;101749.16;4912955;28;45715;-78
2021/09/06 00:36:57;;;;;;;;;14.50;12.50;;;;;21.89;58.23;101748.13;4911932;28;45589;-78
2021/09/06 00:39:23;;;;;;;;;16.00;15.00;;;;;21.85;57.73;101747.66;4915634;28;47019;-79
2021/09/06 00:41:48;;;;;;;;;18.75;15.75;;;;;21.81;57.56;101745.56;4915614;28;45532;-78
2021/09/06 00:44:13;;;;;;;;;14.00;14.00;;;;;21.76;58.15;101742.66;4913845;28;45459;-78
2021/09/06 00:46:44;;;;;;;;;16.75;15.00;;;;;21.75;57.95;101743.69;4912725;28;45715;-79
2021/09/06 00:49:10;;;;;;;;;16.00;16.00;;;;;21.71;57.67;101748.66;4916271;28;46438;-78
2021/09/06 00:51:35;;;;;;;;;17.50;17.00;;;;;21.69;58.08;101748.84;4911171;28;45488;-78
2021/09/06 00:54:00;;;;;;;;;15.25;14.75;;;;;21.68;58.38;101747.16;4915480;28;45555;-78
2021/09/06 00:56:26;;;;;;;;;14.50;13.50;;;;;21.67;58.46;101742.81;4912653;28;45499;-78
2021/09/06 00:58:51;;;;;;;;;18.00;16.00;;;;;21.66;57.86;101751.94;4920912;28;48353;-78
2021/09/06 01:01:17;;;;;;;;;16.50;14.75;;;;;21.65;58.46;101750.25;4924924;28;45813;-78
2021/09/06 01:03:42;;;;;;;;;17.00;15.00;;;;;21.63;58.75;101755.00;4909810;28;45594;-78
2021/09/06 01:06:08;;;;;;;;;16.00;13.75;;;;;21.60;58.29;101758.09;4912904;28;45543;-78
2021/09/06 01:08:33;;;;;;;;;14.50;13.00;;;;;21.58;58.76;101756.63;4913521;28;46530;-78
2021/09/06 01:10:59;;;;;;;;;11.75;11.25;;;;;21.55;58.34;101760.53;4914243;28;54488;-78
2021/09/06 01:13:25;;;;;;;;;18.75;15.25;;;;;21.50;59.20;101757.63;4912932;28;45374;-78
2021/09/06 01:15:50;;;;;;;;;16.75;15.00;;;;;21.45;58.88;101752.81;4919296;28;45602;-78
2021/09/06 01:18:16;;;;;;;;;15.00;15.00;;;;;21.41;58.85;101753.41;4910464;28;46110;-78
2021/09/06 01:20:42;;;;;;;;;12.25;12.25;;;;;21.34;59.20;101745.28;4915035;28;45416;-80
2021/09/06 01:23:09;;;;;;;;;18.25;14.00;;;;;21.29;59.15;101753.09;4912274;28;45490;-80
2021/09/06 01:25:35;;;;;;;;;18.00;14.75;;;;;21.20;59.94;101752.41;4913058;28;45621;-78
2021/09/06 01:28:00;;;;;;;;;14.25;13.75;;;;;21.13;59.92;101745.31;4912022;28;46337;-80
2021/09/06 01:30:26;;;;;;;;;16.00;15.75;;;;;21.07;59.77;101748.78;4908926;28;45491;-80
2021/09/06 01:32:51;;;;;;;;;17.00;15.25;;;;;21.05;59.85;101751.66;4915523;28;45427;-77
2021/09/06 01:35:17;;;;;;;;;19.50;16.00;;;;;20.99;60.29;101755.13;4912383;28;45558;-78
2021/09/06 01:37:42;;;;;;;;;21.50;18.25;;;;;20.94;60.13;101746.81;4911735;28;46125;-80
2021/09/06 01:40:08;;;;;;;;;13.25;13.25;;;;;20.89;60.62;101749.25;4913308;28;51395;-80
2021/09/06 01:42:35;;;;;;;;;17.50;14.50;;;;;20.79;61.09;101750.41;4926000;28;45420;-77
2021/09/06 01:45:02;;;;;;;;;17.50;16.00;;;;;20.76;60.91;101758.84;4914242;28;45592;-78
2021/09/06 01:47:28;;;;;;;;;17.25;16.50;;;;;20.70;60.94;101756.94;4912695;28;46336;-78
2021/09/06 01:49:54;;;;;;;;;17.25;14.25;;;;;20.66;61.22;101761.03;4912542;28;45406;-77
2021/09/06 01:52:20;;;;;;;;;17.25;14.25;;;;;20.60;61.21;101749.19;4912019;28;45602;-77
2021/09/06 01:54:45;;;;;;;;;15.75;15.00;;;;;20.58;61.57;101759.28;4908903;28;45546;-77
2021/09/06 01:57:10;;;;;;;;;15.50;14.25;;;;;20.54;61.77;101767.88;4911359;28;46264;-78
2021/09/06 01:59:36;;;;;;;;;19.25;16.75;;;;;20.51;61.66;101773.66;4927395;28;45534;-78
2021/09/06 02:02:01;;;;;;;;;16.50;16.00;;;;;20.43;61.76;101763.84;4915876;28;56304;-77
2021/09/06 02:04:27;;;;;;;;;19.25;14.50;;;;;20.36;62.54;101765.63;4911895;28;45732;-77
2021/09/06 02:06:52;;;;;;;;;15.25;13.75;;;;;20.33;62.56;101766.84;4909086;28;47107;-78
2021/09/06 02:09:17;;;;;;;;;21.25;16.25;;;;;20.32;62.22;101773.22;4924568;28;45671;-77
2021/09/06 02:11:43;;;;;;;;;17.75;15.50;;;;;20.25;62.84;101761.59;4913947;28;45706;-77
2021/09/06 02:14:09;;;;;;;;;16.75;14.50;;;;;20.21;62.74;101760.28;4913915;28;45605;-78
2021/09/06 02:16:35;;;;;;;;;16.50;16.50;;;;;20.23;62.89;101770.81;4920913;28;45811;-78
2021/09/06 02:19:00;;;;;;;;;16.25;14.75;;;;;20.18;62.68;101768.72;4910765;28;45577;-77
2021/09/06 02:21:25;;;;;;;;;14.25;13.50;;;;;20.16;62.69;101771.59;4908894;28;45506;-77
2021/09/06 02:23:51;;;;;;;;;11.75;10.75;;;;;20.16;62.70;101770.75;4913956;28;45729;-78
2021/09/06 02:26:16;;;;;;;;;17.00;14.75;;;;;20.10;63.31;101760.75;4911541;28;52064;-77
2021/09/06 02:28:41;;;;;;;;;19.00;18.00;;;;;20.08;63.93;101771.72;4910827;28;45665;-77
2021/09/06 02:31:07;;;;;;;;;15.25;14.75;;;;;20.05;63.10;101776.59;4912181;28;45622;-77
2021/09/06 02:33:33;;;;;;;;;16.25;16.00;;;;;19.99;63.42;101775.50;4907612;28;45443;-77
2021/09/06 02:35:58;;;;;;;;;21.75;16.50;;;;;20.00;63.93;101773.63;4913584;28;46417;-78
2021/09/06 02:38:24;;;;;;;;;17.00;16.00;;;;;19.96;63.61;101776.69;4911246;28;45439;-77
2021/09/06 02:40:49;;;;;;;;;20.75;19.00;;;;;19.94;63.63;101770.69;4912091;28;45798;-77
2021/09/06 02:43:14;;;;;;;;;17.25;15.25;;;;;19.90;64.36;101773.91;4911691;28;45521;-77
2021/09/06 02:45:40;;;;;;;;;16.50;14.00;;;;;19.86;63.45;101769.97;4907186;28;45533;-77
2021/09/06 02:48:05;;;;;;;;;13.75;13.75;;;;;19.81;64.12;101773.19;4913028;28;45535;-77
2021/09/06 02:50:31;;;;;;;;;21.50;15.75;;;;;19.79;64.12;101774.41;4912669;28;45575;-77
2021/09/06 02:52:56;;;;;;;;;19.00;17.00;;;;;19.75;64.82;101782.78;4911377;28;45598;-78
2021/09/06 02:55:22;;;;;;;;;17.75;16.25;;;;;19.77;64.72;101785.31;4912012;28;46076;-77
2021/09/06 02:57:48;;;;;;;;;20.25;18.00;;;;;19.75;64.45;101781.97;4908262;28;45658;-77
2021/09/06 03:00:14;;;;;;;;;19.25;17.00;;;;;19.77;64.65;101794.19;4928203;28;45446;-77
2021/09/06 03:02:39;;;;;;;;;18.00;16.00;;;;;19.76;64.92;101789.84;4914772;28;45676;-77
2021/09/06 03:05:06;;;;;;;;;17.25;16.25;;;;;19.76;64.61;101789.03;4910343;28;45643;-77
2021/09/06 03:07:32;;;;;;;;;17.25;17.25;;;;;19.76;64.65;101787.16;4911038;28;45682;-77
2021/09/06 03:09:57;;;;;;;;;20.25;18.25;;;;;19.77;64.32;101791.50;4910712;28;45890;-77
2021/09/06 03:12:22;;;;;;;;;19.25;15.75;;;;;19.73;64.15;101781.31;4908043;28;45462;-77
2021/09/06 03:14:48;;;;;;;;;16.75;15.50;;;;;19.74;64.50;101789.19;4919234;28;45557;-81
2021/09/06 03:17:13;;;;;;;;;16.75;16.00;;;;;19.71;64.56;101786.06;4913228;28;45818;-75
2021/09/06 03:19:39;;;;;;;;;20.25;18.00;;;;;19.68;65.08;101781.03;4913524;28;45489;-77
2021/09/06 03:22:04;;;;;;;;;22.75;17.50;;;;;19.67;64.69;101787.41;4912023;28;45491;-78
2021/09/06 03:24:29;;;;;;;;;20.00;19.00;;;;;19.66;64.91;101791.94;4922769;28;45479;-75
2021/09/06 03:26:55;;;;;;;;;18.75;16.00;;;;;19.59;65.04;101780.28;4913777;28;45518;-75
2021/09/06 03:29:20;;;;;;;;;19.25;17.25;;;;;19.59;64.78;101790.19;4912186;28;45498;-78
2021/09/06 03:31:46;;;;;;;;;18.00;16.50;;;;;19.55;65.07;101790.53;4911827;28;52123;-78
2021/09/06 03:34:11;;;;;;;;;22.25;17.75;;;;;19.52;65.28;101785.53;4927173;28;47087;-78
2021/09/06 03:36:37;;;;;;;;;19.25;17.25;;;;;19.50;65.54;101784.06;4922058;28;45571;-78
2021/09/06 03:39:02;;;;;;;;;17.75;15.50;;;;;19.45;65.81;101786.44;4913114;28;45393;-79
2021/09/06 03:41:30;;;;;;;;;21.50;20.75;;;;;19.47;65.73;101792.47;4910047;28;45472;-79
2021/09/06 03:43:56;;;;;;;;;18.75;15.75;;;;;19.45;65.97;101789.13;4911774;28;46526;-79
2021/09/06 03:46:21;;;;;;;;;21.25;18.50;;;;;19.43;65.73;101783.94;4909783;28;45720;-78
2021/09/06 03:48:47;;;;;;;;;19.00;16.75;;;;;19.41;66.10;101780.63;4907624;28;46168;-78
2021/09/06 03:51:12;;;;;;;;;17.00;16.25;;;;;19.37;66.32;101776.63;4910268;28;45642;-78
2021/09/06 03:53:37;;;;;;;;;18.00;16.25;;;;;19.35;65.70;101775.97;4912535;28;46278;-78
2021/09/06 03:56:03;;;;;;;;;18.00;18.00;;;;;19.34;66.23;101777.00;4910433;28;45934;-79
2021/09/06 03:58:29;;;;;;;;;21.50;18.25;;;;;19.33;65.83;101778.00;4917375;28;45706;-78
2021/09/06 04:00:54;;;;;;;;;20.25;18.75;;;;;19.32;66.35;101773.69;4925098;28;45554;-78
2021/09/06 04:03:20;;;;;;;;;20.25;18.00;;;;;19.31;66.25;101777.34;4923826;28;46204;-78
2021/09/06 04:05:45;;;;;;;;;20.25;19.00;;;;;19.29;66.35;101776.72;4912313;28;45448;-79
2021/09/06 04:08:10;;;;;;;;;20.00;17.50;;;;;19.29;66.54;101779.41;4915083;28;45411;-79
2021/09/06 04:10:36;;;;;;;;;18.75;18.00;;;;;19.29;66.84;101782.09;4909452;28;45619;-78
2021/09/06 04:13:02;;;;;;;;;22.75;19.25;;;;;19.27;66.96;101792.97;4909842;28;47072;-78
2021/09/06 04:15:27;;;;;;;;;23.50;20.75;;;;;19.25;67.11;101784.28;4917155;28;45782;-78
2021/09/06 04:17:53;;;;;;;;;23.50;19.00;;;;;19.24;66.86;101781.81;4913873;28;45454;-78
2021/09/06 04:20:19;;;;;;;;;18.75;18.25;;;;;19.23;66.99;101782.78;4912177;28;45555;-79
2021/09/06 04:22:45;;;;;;;;;19.75;17.75;;;;;19.24;67.49;101782.63;4910981;28;46045;-78
2021/09/06 04:25:11;;;;;;;;;23.75;18.50;;;;;19.21;67.39;101776.78;4917379;28;45543;-78
2021/09/06 04:27:39;;;;;;;;;22.75;20.50;;;;;19.21;67.33;101787.50;4909351;28;45933;-77
2021/09/06 04:30:05;;;;;;;;;23.00;21.00;;;;;19.18;67.61;101782.50;4926416;28;45463;-78
2021/09/06 04:32:31;;;;;;;;;28.25;21.50;;;;;19.19;67.96;101785.00;4912344;28;45705;-78
2021/09/06 04:34:57;;;;;;;;;26.00;20.75;;;;;19.18;68.26;101793.22;4912792;28;46396;-78
2021/09/06 04:37:22;;;;;;;;;20.00;19.25;;;;;19.18;67.84;101795.91;4913338;28;45711;-77
2021/09/06 04:39:49;;;;;;;;;21.75;20.75;;;;;19.18;68.30;101795.91;4910263;28;46150;-78
2021/09/06 04:42:15;;;;;;;;;23.75;19.00;;;;;19.15;68.38;101799.78;4926471;28;46160;-77
2021/09/06 04:44:42;;;;;;;;;21.50;20.25;;;;;19.16;68.11;101800.59;4913908;28;45539;-78
2021/09/06 04:47:07;;;;;;;;;19.50;16.75;;;;;19.14;68.03;101803.47;4913175;28;45744;-77
2021/09/06 04:49:33;;;;;;;;;20.50;18.00;;;;;19.13;68.30;101810.66;4912627;28;45626;-77
2021/09/06 04:51:58;;;;;;;;;18.25;16.00;;;;;19.11;67.90;101815.41;4914004;28;46332;-77
2021/09/06 04:54:24;;;;;;;;;22.00;21.75;;;;;19.12;68.35;101816.22;4909012;28;45589;-77
2021/09/06 04:56:49;;;;;;;;;24.75;23.25;;;;;19.10;68.65;101815.56;4915135;28;45666;-78
2021/09/06 04:59:16;;;;;;;;;26.50;22.75;;;;;19.10;68.55;101811.03;4925280;28;45558;-76
2021/09/06 05:01:41;;;;;;;;;26.25;21.00;;;;;19.06;68.94;101814.25;4936002;28;46763;-77
2021/09/06 05:04:07;;;;;;;;;22.00;19.00;;;;;19.06;69.09;101820.44;4922224;28;45669;-76
2021/09/06 05:06:32;;;;;;;;;27.50;22.75;;;;;19.06;69.51;101823.09;4918580;28;45542;-76
2021/09/06 05:08:58;;;;;;;;;26.00;22.75;;;;;19.03;69.03;101820.78;4923056;28;45725;-76
2021/09/06 05:11:24;;;;;;;;;21.75;20.25;;;;;19.05;69.16;101818.78;4921968;28;46523;-76
2021/09/06 05:13:49;;;;;;;;;24.25;21.75;;;;;19.05;69.27;101823.31;4920207;28;45450;-76
2021/09/06 05:16:16;;;;;;;;;23.75;22.00;;;;;19.07;69.53;101835.50;4918662;28;45534;-76
2021/09/06 05:18:44;;;;;;;;;22.25;22.00;;;;;19.07;69.74;101834.69;4918796;28;45435;-76
2021/09/06 05:21:11;;;;;;;;;23.00;20.75;;;;;19.08;69.50;101830.97;4919228;28;46354;-76
2021/09/06 05:23:36;;;;;;;;;24.75;22.25;;;;;19.06;69.36;101831.16;4921361;28;45559;-76
2021/09/06 05:26:01;;;;;;;;;22.75;21.25;;;;;19.09;69.25;101838.84;4918161;28;45542;-76
2021/09/06 05:28:27;;;;;;;;;25.00;24.75;;;;;19.13;69.52;101848.19;4920986;28;45491;-76
2021/09/06 05:30:52;;;;;;;;;26.25;23.25;;;;;19.17;69.25;101848.66;4917994;28;47133;-75
2021/09/06 05:33:17;;;;;;;;;27.25;25.00;;;;;19.21;69.57;101849.13;4920927;28;45397;-75
2021/09/06 05:35:43;;;;;;;;;25.75;22.75;;;;;19.23;69.09;101857.84;4921938;28;45493;-76
2021/09/06 05:38:09;;;;;;;;;29.75;24.75;;;;;19.24;69.02;101860.34;4920709;28;45459;-76
2021/09/06 05:40:34;;;;;;;;;29.00;25.75;;;;;19.28;68.92;101863.50;4920566;28;45472;-78
2021/09/06 05:43:00;;;;;;;;;30.75;26.00;;;;;19.27;68.77;101856.47;4913651;28;45399;-76
2021/09/06 05:45:25;;;;;;;;;25.00;23.50;;;;;19.34;68.77;101873.50;4909964;28;46831;-77
2021/09/06 05:47:51;;;;;;;;;26.25;23.25;;;;;19.38;68.19;101871.28;4913785;28;45841;-78
2021/09/06 05:50:19;;;;;;;;;24.50;22.25;;;;;19.43;68.12;101877.75;4908727;28;45606;-76
2021/09/06 05:52:45;;;;;;;;;26.25;24.25;;;;;19.48;68.30;101880.72;4908873;28;45620;-76
2021/09/06 05:55:12;;;;;;;;;29.00;25.25;;;;;19.52;68.21;101882.06;4908991;28;45602;-77
2021/09/06 05:57:38;;;;;;;;;27.75;26.25;;;;;19.55;68.07;101891.59;4914294;28;45473;-77
2021/09/06 06:00:04;;;;;;;;;30.25;28.00;;;;;19.63;67.81;101891.50;4924109;28;45497;-77
2021/09/06 06:02:30;;;;;;;;;23.50;21.75;;;;;19.65;67.54;101885.97;4930182;28;45644;-77
2021/09/06 06:04:55;;;;;;;;;28.25;24.75;;;;;19.74;67.11;101890.28;4937300;28;50529;-77
2021/09/06 06:07:20;;;;;;;;;29.25;27.75;;;;;19.82;67.32;101892.88;4933084;28;45574;-77
2021/09/06 06:09:48;;;;;;;;;31.50;24.50;;;;;19.93;67.27;101894.28;4938306;28;46102;-77
2021/09/06 06:12:14;;;;;;;;;29.25;26.75;;;;;19.96;67.06;101894.75;4921844;28;45719;-77
2021/09/06 06:14:39;;;;;;;;;26.00;25.00;;;;;20.04;66.94;101895.69;4925472;28;45565;-77
2021/09/06 06:17:05;;;;;;;;;23.25;23.00;;;;;20.05;67.02;101891.97;4933245;28;45482;-77
2021/09/06 06:19:31;;;;;;;;;30.50;25.00;;;;;20.18;67.05;101902.91;4934185;28;45653;-77
2021/09/06 06:21:56;;;;;;;;;30.25;28.75;;;;;20.26;66.59;101893.94;4937560;28;45471;-77
2021/09/06 06:24:22;;;;;;;;;31.00;29.25;;;;;20.31;65.98;101897.72;4926857;28;45653;-77
2021/09/06 06:26:47;;;;;;;;;28.50;25.25;;;;;20.47;65.64;101912.78;4924367;28;46187;-76
2021/09/06 06:29:13;;;;;;;;;27.50;23.50;;;;;20.55;64.98;101904.69;4930550;28;46242;-77
2021/09/06 06:31:38;;;;;;;;;30.75;27.50;;;;;20.63;65.05;101903.75;4926400;28;45475;-77
2021/09/06 06:34:03;;;;;;;;;33.00;30.25;;;;;20.70;64.88;101903.84;4925267;28;46105;-77
2021/09/06 06:36:29;;;;;;;;;30.00;26.75;;;;;20.79;64.35;101902.69;4922319;28;45518;-77
2021/09/06 06:38:55;;;;;;;;;30.50;24.75;;;;;20.86;64.05;101910.84;4921009;28;45985;-77
2021/09/06 06:41:20;;;;;;;;;30.25;27.75;;;;;20.92;63.85;101915.44;4928959;28;45633;-77
2021/09/06 06:43:45;;;;;;;;;28.00;26.25;;;;;20.95;63.42;101920.47;4919705;28;45555;-77
2021/09/06 06:46:11;;;;;;;;;30.50;24.00;;;;;21.02;63.31;101918.69;4920598;28;45647;-79
2021/09/06 06:48:36;;;;;;;;;25.75;23.50;;;;;21.12;63.13;101927.28;4951488;28;46555;-76
2021/09/06 06:51:02;;;;;;;;;26.00;24.25;;;;;21.35;63.36;101915.50;4928434;28;45555;-77
2021/09/06 06:53:27;;;;;;;;;30.50;25.00;;;;;21.71;62.13;101917.28;4932417;28;45565;-77
2021/09/06 06:55:53;;;;;;;;;27.75;24.75;;;;;22.21;61.40;101907.34;4919862;28;46003;-77
2021/09/06 06:58:19;;;;;;;;;27.75;25.75;;;;;22.74;59.88;101915.66;4944646;28;51370;-76
2021/09/06 07:00:44;;;;;;;;;29.25;25.25;;;;;23.25;59.14;101920.59;4929513;28;45548;-76
2021/09/06 07:03:10;;;;;;;;;24.50;22.00;;;;;23.42;56.95;101923.75;4920809;28;45649;-76
2021/09/06 07:05:35;;;;;;;;;27.25;25.25;;;;;23.24;57.29;101920.78;4919490;28;45627;-78
2021/09/06 07:08:00;;;;;;;;;23.25;21.75;;;;;23.18;58.15;101930.53;4919171;28;46020;-78
2021/09/06 07:10:26;;;;;;;;;30.75;24.75;;;;;23.18;57.86;101923.28;4918530;28;45525;-78
2021/09/06 07:12:51;;;;;;;;;27.50;25.25;;;;;23.17;57.34;101927.03;4917223;28;45749;-77
2021/09/06 07:15:17;;;;;;;;;24.50;23.00;;;;;23.17;57.23;101927.03;4918440;28;45423;-77
2021/09/06 07:17:43;;;;;;;;;24.75;20.75;;;;;23.19;56.98;101929.50;4920434;28;47195;-78
2021/09/06 07:20:09;;;;;;;;;25.75;22.50;;;;;23.23;57.09;101930.75;4917801;28;52600;-77
2021/09/06 07:22:34;;;;;;;;;20.50;19.75;;;;;23.50;56.40;101930.81;4936489;28;45408;-77
2021/09/06 07:25:00;;;;;;;;;21.50;21.00;;;;;24.07;56.28;101932.06;4916383;28;45715;-78
2021/09/06 07:27:25;;;;;;;;;26.00;22.50;;;;;25.02;55.00;101931.53;4919013;28;45465;-78
2021/09/06 07:29:51;;;;;;;;;25.25;20.75;;;;;25.85;51.75;101933.25;4920791;28;45439;-78
2021/09/06 07:32:16;;;;;;;;;19.00;15.50;;;;;25.93;50.44;101941.13;4919019;28;45685;-78
2021/09/06 07:34:42;;;;;;;;;21.25;17.50;;;;;25.79;50.00;101940.38;4919095;28;45577;-78
2021/09/06 07:37:09;;;;;;;;;19.50;16.25;;;;;25.63;49.33;101949.06;4915661;28;46120;-77
2021/09/06 07:39:36;;;;;;;;;25.25;21.00;;;;;25.48;49.36;101941.25;4917882;28;45537;-81
2021/09/06 07:42:03;;;;;;;;;25.00;20.00;;;;;25.46;49.38;101943.34;4921599;28;45462;-79
2021/09/06 07:44:29;;;;;;;;;24.25;21.00;;;;;26.29;49.90;101937.63;4917967;28;46002;-79
2021/09/06 07:46:55;;;;;;;;;21.25;18.00;;;;;28.59;46.29;101944.59;4918044;28;46375;-81
2021/09/06 07:49:21;;;;;;;;;16.50;15.25;;;;;29.57;43.58;101937.13;4916448;28;45708;-79
2021/09/06 07:51:53;;;;;;;;;20.50;16.75;;;;;30.16;41.40;101944.84;4915394;28;45872;-79
2021/09/06 07:54:24;;;;;;;;;16.00;15.25;;;;;30.81;42.67;101948.66;4916307;28;45699;-79
2021/09/06 07:56:53;;;;;;;;;21.00;17.00;;;;;33.12;39.27;101948.31;4920579;28;45823;-79
2021/09/06 07:59:19;;;;;;;;;22.75;16.25;;;;;35.93;34.89;101949.81;4923983;28;45447;-79
2021/09/06 08:01:48;;;;;;;;;19.75;18.75;;;;;38.53;32.03;101965.28;4921348;28;45810;-80
2021/09/06 08:04:14;;;;;;;;;18.25;15.00;;;;;40.56;29.97;101965.84;4920785;28;45523;-79
2021/09/06 08:06:40;;;;;;;;;15.25;13.75;;;;;42.36;27.86;101971.63;4917712;28;45510;-80
2021/09/06 08:09:06;;;;;;;;;16.00;15.00;;;;;44.03;25.95;101978.06;4919668;28;45555;-80
2021/09/06 08:11:32;;;;;;;;;15.50;15.00;;;;;45.48;23.13;101977.13;4924329;28;47533;-79
2021/09/06 08:13:59;;;;;;;;;15.25;15.25;;;;;46.70;20.98;101980.00;4920814;28;45414;-80
2021/09/06 08:16:25;;;;;;;;;15.00;15.00;;;;;47.31;22.31;101978.44;4925301;28;46167;-78
2021/09/06 08:18:50;;;;;;;;;18.25;15.25;;;;;47.89;20.50;101983.03;4920522;28;45651;-80
2021/09/06 08:21:15;;;;;;;;;13.75;13.50;;;;;48.35;20.82;101980.13;4921684;28;45522;-80
2021/09/06 08:23:41;;;;;;;;;15.50;14.00;;;;;48.76;19.50;101985.03;4923054;28;45856;-80
2021/09/06 08:26:06;;;;;;;;;13.00;13.00;;;;;49.44;18.83;101985.78;4920702;28;45476;-79
2021/09/06 08:28:32;;;;;;;;;17.00;16.75;;;;;50.14;19.08;101981.09;4924354;28;45816;-80
2021/09/06 08:30:58;;;;;;;;;16.25;14.00;;;;;50.38;17.12;101987.25;4920491;28;45503;-80
2021/09/06 08:33:24;;;;;;;;;12.50;12.25;;;;;50.51;17.38;101982.88;4920302;28;45667;-80
2021/09/06 08:35:49;;;;;;;;;16.50;16.00;;;;;50.94;17.31;101991.47;4923491;28;46908;-81
2021/09/06 08:38:18;;;;;;;;;18.25;13.25;;;;;51.22;17.41;101987.94;4921668;28;45483;-80
2021/09/06 08:40:44;;;;;;;;;15.00;14.75;;;;;51.79;16.50;101982.31;4921847;28;45729;-81
2021/09/06 08:43:09;;;;;;;;;16.00;13.00;;;;;52.41;14.88;101983.78;4919825;28;45575;-80
2021/09/06 08:45:36;;;;;;;;;14.75;14.75;;;;;52.55;14.74;101984.91;4920305;28;46069;-80
2021/09/06 08:48:03;;;;;;;;;15.25;13.50;;;;;52.66;14.95;101983.63;4923874;28;45954;-80
2021/09/06 08:50:29;;;;;;;;;13.00;12.00;;;;;53.16;14.92;101976.91;4922310;28;45621;-80
2021/09/06 08:52:54;;;;;;;;;13.75;13.25;;;;;53.85;14.45;101985.59;4920657;28;45622;-80
2021/09/06 08:55:21;;;;;;;;;15.75;13.50;;;;;54.11;14.04;101978.44;4922524;28;46878;-80
2021/09/06 08:57:46;;;;;;;;;14.75;13.00;;;;;54.07;13.21;101980.53;4917301;28;45547;-80
2021/09/06 09:00:12;;;;;;;;;14.00;14.00;;;;;53.99;13.87;101982.59;4919378;28;45622;-80
2021/09/06 09:02:40;;;;;;;;;14.50;14.00;;;;;53.73;13.49;101978.44;4934580;28;45945;-80
2021/09/06 09:05:08;;;;;;;;;16.00;14.00;;;;;53.49;13.90;101983.91;4917189;28;46080;-80
2021/09/06 09:07:35;;;;;;;;;17.75;13.50;;;;;53.54;13.13;101984.66;4920647;28;59752;-80
2021/09/06 09:10:01;;;;;;;;;11.75;11.75;;;;;53.30;14.07;101988.06;4920135;28;45498;-80
2021/09/06 09:12:28;;;;;;;;;15.25;13.50;;;;;53.49;12.95;101985.91;4920375;28;45557;-80
2021/09/06 09:14:56;;;;;;;;;13.50;12.25;;;;;53.42;13.43;101981.16;4920447;28;46465;-79
2021/09/06 09:17:22;;;;;;;;;14.75;14.00;;;;;53.14;12.53;101981.34;4923281;28;49324;-80
2021/09/06 09:19:48;;;;;;;;;14.25;12.00;;;;;52.66;13.48;101975.19;4919172;28;45999;-80
2021/09/06 09:22:35;;;;;;;;;11.75;10.50;;;;;52.47;14.12;101978.50;4916339;28;45558;-80
2021/09/06 09:25:03;;;;;;;;;12.75;12.75;;;;;52.67;13.96;101973.16;4922856;28;51923;-80
2021/09/06 09:27:34;;;;;;;;;12.50;11.50;;;;;52.69;13.42;101965.09;4971703;28;45723;-80
2021/09/06 09:30:00;;;;;;;;;13.00;12.00;;;;;52.27;13.36;101975.34;4941304;28;45747;-80
2021/09/06 09:32:26;;;;;;;;;12.50;10.00;;;;;52.06;13.59;101964.97;4923521;28;45514;-80
2021/09/06 09:34:52;;;;;;;;;10.00;10.00;;;;;52.40;13.74;101973.69;4916044;28;46095;-80
2021/09/06 09:37:26;;;;;;;;;11.25;11.00;;;;;52.69;13.21;101976.38;4911521;28;46033;-80
2021/09/06 09:39:57;;;;;;;;;14.50;11.50;;;;;52.96;13.53;101978.66;4908620;28;45578;-80
2021/09/06 09:42:23;;;;;;;;;11.25;11.25;;;;;53.20;12.62;101979.72;4907906;28;46114;-80
2021/09/06 09:44:54;;;;;;;;;12.00;10.50;;;;;53.29;12.87;101972.34;4943875;28;45961;-80
2021/09/06 09:47:23;;;;;;;;;9.50;9.50;;;;;53.22;12.82;101971.59;4928186;28;45701;-80
2021/09/06 09:49:53;;;;;;;;;11.25;11.25;;;;;52.93;13.05;101965.38;4923595;28;45496;-80
2021/09/06 09:52:21;;;;;;;;;12.00;9.25;;;;;51.60;11.97;101980.69;4925208;28;45724;-80
2021/09/06 09:54:52;;;;;;;;;10.50;9.00;;;;;50.38;13.35;101976.00;4912653;28;47068;-80
2021/09/06 09:57:18;;;;;;;;;11.25;10.50;;;;;49.07;13.03;101972.59;4926966;28;45669;-80
2021/09/06 09:59:43;;;;;;;;;10.75;10.00;;;;;47.48;14.88;101962.34;4929134;28;45505;-80
2021/09/06 10:02:19;;;;;;;;;15.50;13.25;;;;;46.58;17.31;101963.38;4915471;28;45644;-80
2021/09/06 10:04:51;;;;;;;;;9.75;9.00;;;;;46.11;17.65;101958.75;4910686;28;45402;-80
2021/09/06 10:07:18;;;;;;;;;11.75;9.50;;;;;45.70;16.88;101947.00;4914702;28;45541;-81
2021/09/06 10:09:46;;;;;;;;;11.00;11.00;;;;;45.29;15.99;101957.50;4916814;28;45817;-80
2021/09/06 10:12:19;;;;;;;;;10.00;10.00;;;;;44.40;17.62;101952.97;4914516;28;45646;-81
2021/09/06 10:14:56;;;;;;;;;13.25;12.25;;;;;44.08;17.51;101960.31;4918812;28;46217;-80
2021/09/06 10:17:39;;;;;;;;;10.25;10.25;;;;;43.38;18.21;101956.41;4915462;28;45722;-79
2021/09/06 10:20:25;;;;;;;;;11.25;9.00;;;;;42.93;18.31;101950.78;4929211;28;45598;-80
2021/09/06 10:23:09;;;;;;;;;11.25;10.25;;;;;42.19;18.77;101946.75;4932729;28;45684;-80
2021/09/06 10:25:37;;;;;;;;;10.25;10.25;;;;;41.62;19.96;101945.19;4937786;28;45535;-80
2021/09/06 10:28:05;;;;;;;;;10.25;9.50;;;;;41.18;19.90;101942.53;4940381;28;45604;-81
2021/09/06 10:30:51;;;;;;;;;9.25;9.25;;;;;40.79;19.31;101946.31;4915718;28;45534;-80
2021/09/06 10:33:22;;;;;;;;;10.00;10.00;;;;;40.51;20.60;101941.06;4940882;28;45891;-80
2021/09/06 10:35:48;;;;;;;;;12.00;10.75;;;;;40.23;19.49;101939.69;4918680;28;45988;-81
2021/09/06 10:38:15;;;;;;;;;11.00;11.00;;;;;39.63;20.64;101941.09;4951765;28;45524;-80
2021/09/06 10:40:43;;;;;;;;;12.00;12.00;;;;;39.15;20.92;101945.34;4944004;28;45548;-81
2021/09/06 10:43:20;;;;;;;;;10.25;10.00;;;;;39.21;21.24;101940.50;4953906;28;45690;-81
2021/09/06 10:45:48;;;;;;;;;10.75;10.75;;;;;39.18;21.47;101938.38;4930600;28;45914;-79
2021/09/06 10:48:25;;;;;;;;;10.75;9.00;;;;;39.05;21.58;101932.59;4925076;28;46438;-77
2021/09/06 10:50:52;;;;;;;;;11.25;9.50;;;;;39.20;21.74;101928.63;4929597;28;45995;-81
2021/09/06 10:53:20;;;;;;;;;10.50;9.75;;;;;39.05;21.00;101918.78;4927902;28;45709;-81
2021/09/06 10:55:50;;;;;;;;;11.00;11.00;;;;;39.25;21.82;101924.94;4931120;28;45816;-81
2021/09/06 10:58:16;;;;;;;;;10.75;10.75;;;;;39.72;22.21;101928.94;4934928;28;56888;-83
2021/09/06 11:00:49;;;;;;;;;9.75;9.75;;;;;40.40;21.84;101926.69;4938124;28;45523;-82
2021/09/06 11:03:15;;;;;;;;;10.00;10.00;;;;;41.01;20.42;101928.69;4927985;28;45620;-82
2021/09/06 11:05:50;;;;;;;;;11.00;11.00;;;;;41.25;20.85;101923.44;4943102;28;48000;-81